Time;durP1;ratioP1;P1;durP2;ratioP2;P2;SDS_P1;SDS_P2;PMS_P1;PMS_P2;Temp;Humidity;BMP_temperature;BMP_pressure;BME280_temperature;BME280_humidity;BME280_pressure;Samples;Min_cycle;Max_cycle;Signal;HPM_P1;HPM_P2
2022/11/10 00:01:46;;;;;;;33.38;24.00;;;;;;;6.59;86.83;100473.66;1833964;76;21775;-74
2022/11/10 00:04:30;;;;;;;34.25;23.60;;;;;;;6.58;86.84;100475.09;1827832;77;21059;-74
2022/11/10 00:07:16;;;;;;;32.55;24.72;;;;;;;6.52;87.05;100471.63;1839515;75;21004;-74
2022/11/10 00:10:03;;;;;;;32.28;22.77;;;;;;;6.44;87.14;100465.16;1852588;75;21060;-73
2022/11/10 00:12:51;;;;;;;33.98;23.92;;;;;;;6.51;87.16;100469.48;1850054;75;21547;-72
2022/11/10 00:18:41;;;;;;;33.88;24.12;;;;;;;6.47;87.18;100467.57;1851563;77;21037;-73
2022/11/10 00:21:26;;;;;;;32.13;22.42;;;;;;;6.43;87.13;100458.22;1851825;77;21096;-73
2022/11/10 00:24:11;;;;;;;29.60;22.85;;;;;;;6.49;87.03;100460.85;1858591;77;21453;-74
2022/11/10 00:26:56;;;;;;;31.33;23.95;;;;;;;6.42;87.15;100464.45;1855556;75;21039;-73
2022/11/10 00:29:41;;;;;;;34.00;24.07;;;;;;;6.34;87.38;100464.73;1848285;76;21278;-74
2022/11/10 00:32:26;;;;;;;31.65;22.73;;;;;;;6.33;87.70;100453.80;1841420;77;21084;-74
2022/11/10 00:35:11;;;;;;;30.80;23.12;;;;;;;6.37;87.58;100443.34;1859818;77;20982;-73
2022/11/10 00:37:56;;;;;;;30.45;22.87;;;;;;;6.32;87.66;100450.78;1853739;75;21537;-74
2022/11/10 00:40:41;;;;;;;31.80;22.73;;;;;;;6.23;88.01;100447.94;1847367;75;21164;-75
2022/11/10 00:43:27;;;;;;;32.58;23.30;;;;;;;6.19;88.32;100454.42;1835831;76;21133;-75
2022/11/10 00:46:13;;;;;;;31.52;23.12;;;;;;;6.28;88.05;100454.17;1830969;77;21096;-74
2022/11/10 00:48:58;;;;;;;32.85;23.50;;;;;;;6.27;88.06;100445.89;1832055;77;21482;-74
2022/11/10 00:51:45;;;;;;;35.70;24.65;;;;;;;6.19;88.36;100441.23;1844351;77;21040;-75
2022/11/10 00:54:30;;;;;;;32.73;22.32;;;;;;;6.15;88.50;100441.61;1838740;77;21037;-74
2022/11/10 00:57:15;;;;;;;29.50;22.40;;;;;;;6.21;88.52;100443.75;1846421;77;21908;-73
2022/11/10 01:00:00;;;;;;;34.03;22.48;;;;;;;6.24;88.42;100436.43;1835808;77;21041;-75
2022/11/10 01:02:45;;;;;;;32.53;23.27;;;;;;;6.18;88.57;100437.39;1837128;77;21126;-74
2022/11/10 01:05:30;;;;;;;30.10;21.17;;;;;;;6.12;88.92;100434.75;1837301;77;21049;-72
2022/11/10 01:08:15;;;;;;;30.17;22.30;;;;;;;6.20;88.60;100430.19;1847603;77;21471;-73
2022/11/10 01:11:09;;;;;;;28.35;21.20;;;;;;;6.17;88.70;100437.05;1833528;76;21198;-72
2022/11/10 01:13:55;;;;;;;29.45;20.55;;;;;;;6.12;88.82;100433.92;1846198;77;21536;-75
2022/11/10 01:16:41;;;;;;;30.25;21.62;;;;;;;6.14;88.80;100430.68;1836029;77;21238;-74
2022/11/10 01:19:26;;;;;;;32.07;22.43;;;;;;;6.19;88.61;100420.61;1847719;76;21280;-75
2022/11/10 01:22:11;;;;;;;33.02;21.55;;;;;;;6.12;88.73;100425.52;1847674;77;20998;-75
2022/11/10 01:24:56;;;;;;;27.32;20.80;;;;;;;6.06;88.91;100421.57;1845686;77;21241;-74
2022/11/10 01:27:41;;;;;;;27.52;20.90;;;;;;;6.10;88.89;100416.44;1834643;76;21069;-72
2022/11/10 01:30:26;;;;;;;27.77;20.75;;;;;;;6.16;88.76;100419.52;1842648;77;21057;-70
2022/11/10 01:33:12;;;;;;;31.60;22.70;;;;;;;6.08;88.92;100411.77;1838445;77;21030;-74
2022/11/10 01:35:57;;;;;;;31.82;21.70;;;;;;;6.02;89.25;100421.46;1822155;76;21010;-73
2022/11/10 01:38:42;;;;;;;28.70;21.17;;;;;;;6.07;89.13;100420.63;1847207;77;21636;-73
2022/11/10 01:41:28;;;;;;;29.45;21.73;;;;;;;6.09;88.97;100427.10;1838538;76;21034;-72
2022/11/10 01:44:17;;;;;;;32.40;22.73;;;;;;;6.03;89.18;100422.32;1823514;77;21005;-73
2022/11/10 01:47:02;;;;;;;30.65;20.43;;;;;;;6.00;89.21;100427.83;1827338;78;21045;-72
2022/11/10 01:49:47;;;;;;;31.02;20.35;;;;;;;6.08;88.87;100424.95;1828981;78;21640;-75
2022/11/10 01:52:33;;;;;;;28.90;21.82;;;;;;;6.09;88.79;100426.61;1833103;76;21359;-73
2022/11/10 01:55:19;;;;;;;31.87;22.32;;;;;;;6.01;89.00;100428.20;1813985;76;20997;-69
2022/11/10 01:58:04;;;;;;;27.73;20.15;;;;;;;5.95;89.19;100419.40;1819330;78;21242;-73
2022/11/10 02:00:49;;;;;;;29.15;20.37;;;;;;;6.02;88.85;100417.50;1817248;78;21073;-73
2022/11/10 02:03:50;;;;;;;33.10;21.85;;;;;;;6.02;88.81;100416.19;1804055;78;20978;-74
2022/11/10 02:06:38;;;;;;;32.53;21.52;;;;;;;5.95;88.98;100423.36;1818371;78;21089;-71
2022/11/10 02:09:24;;;;;;;28.92;19.70;;;;;;;5.89;89.07;100421.58;1830101;77;21022;-74
2022/11/10 02:12:10;;;;;;;28.80;19.98;;;;;;;5.99;88.84;100426.13;1824124;76;21638;-71
2022/11/10 02:14:55;;;;;;;33.67;22.17;;;;;;;5.97;88.81;100425.42;1823783;78;21080;-71
2022/11/10 02:17:41;;;;;;;29.60;20.82;;;;;;;5.88;89.01;100429.12;1818051;76;21089;-73
2022/11/10 02:20:27;;;;;;;28.35;19.65;;;;;;;5.81;89.47;100423.96;1806714;78;21119;-73
2022/11/10 02:23:39;;;;;;;27.00;20.40;;;;;;;5.86;89.20;100417.86;1829983;76;21029;-74
2022/11/10 02:26:26;;;;;;;30.17;22.20;;;;;;;5.87;89.08;100428.78;1820556;78;21997;-73
2022/11/10 02:29:12;;;;;;;29.70;20.30;;;;;;;5.76;89.47;100428.78;1812758;77;21016;-73
2022/11/10 02:31:58;;;;;;;26.73;19.57;;;;;;;5.75;89.63;100431.04;1825937;77;21076;-71
2022/11/10 02:34:44;;;;;;;26.50;19.75;;;;;;;5.81;89.39;100429.23;1811585;78;21796;-74
2022/11/10 02:37:29;;;;;;;28.52;19.90;;;;;;;5.77;89.49;100438.34;1828148;77;21000;-74
2022/11/10 02:40:15;;;;;;;31.57;21.65;;;;;;;5.71;89.79;100437.52;1808931;78;21065;-72
2022/11/10 02:43:02;;;;;;;26.55;20.15;;;;;;;5.77;89.55;100441.47;1842127;75;21652;-73
2022/11/10 02:45:46;;;;;;;27.07;20.95;;;;;;;5.81;89.44;100440.27;1841559;77;21620;-72
2022/11/10 02:48:32;;;;;;;31.10;21.23;;;;;;;5.73;89.81;100438.23;1853632;76;21208;-74
2022/11/10 02:51:17;;;;;;;30.55;20.62;;;;;;;5.66;90.02;100438.34;1838996;77;20998;-75
2022/11/10 02:54:02;;;;;;;29.87;20.30;;;;;;;5.68;90.02;100434.65;1820464;77;21006;-74
2022/11/10 02:56:47;;;;;;;28.10;21.05;;;;;;;5.77;89.71;100433.56;1789295;77;21076;-72
2022/11/10 02:59:34;;;;;;;27.98;19.98;;;;;;;5.73;89.88;100428.17;1800912;77;21024;-74
2022/11/10 03:02:18;;;;;;;26.65;19.35;;;;;;;5.67;90.10;100436.91;1777113;80;21209;-73
2022/11/10 03:05:04;;;;;;;25.02;18.35;;;;;;;5.73;90.08;100441.36;1769034;80;21084;-72
2022/11/10 03:07:54;;;;;;;24.90;19.07;;;;;;;5.80;89.90;100440.76;1800156;78;21512;-72
2022/11/10 03:10:41;;;;;;;25.70;18.20;;;;;;;5.77;89.97;100433.08;1777870;79;21519;-73
2022/11/10 03:13:26;;;;;;;26.25;17.52;;;;;;;5.80;90.11;100434.16;1770509;80;21127;-74
2022/11/10 03:16:11;;;;;;;24.90;18.95;;;;;;;5.90;89.68;100426.37;1760948;79;21325;-73
2022/11/10 03:18:58;;;;;;;24.77;18.05;;;;;;;5.87;89.77;100427.91;1761685;79;21041;-73
2022/11/10 03:21:43;;;;;;;22.45;16.75;;;;;;;5.88;89.76;100415.94;1776043;79;21061;-73
2022/11/10 03:24:28;;;;;;;26.87;19.20;;;;;;;5.96;89.53;100415.36;1774693;78;21037;-72
2022/11/10 03:27:13;;;;;;;29.52;18.82;;;;;;;5.93;89.60;100410.31;1785822;80;21049;-73
2022/11/10 03:29:58;;;;;;;23.40;17.25;;;;;;;5.90;89.72;100408.73;1783147;80;21079;-74
2022/11/10 03:32:44;;;;;;;25.12;18.17;;;;;;;6.03;89.38;100403.37;1768449;80;21474;-75
2022/11/10 03:35:29;;;;;;;24.55;18.17;;;;;;;6.08;89.14;100404.31;1764550;80;21036;-73
2022/11/10 03:38:14;;;;;;;26.42;18.75;;;;;;;6.05;89.21;100402.77;1761586;79;21493;-74
2022/11/10 03:40:59;;;;;;;22.82;17.77;;;;;;;6.09;89.20;100399.41;1759433;80;21156;-72
2022/11/10 03:43:46;;;;;;;24.85;18.35;;;;;;;6.21;88.82;100405.49;1740269;80;21058;-72
2022/11/10 03:46:32;;;;;;;27.50;19.48;;;;;;;6.21;88.68;100408.12;1758269;81;21056;-73
2022/11/10 03:49:18;;;;;;;25.50;18.05;;;;;;;6.18;88.69;100393.85;1774057;79;21024;-73
2022/11/10 03:52:03;;;;;;;23.00;17.65;;;;;;;6.24;88.78;100386.78;1805643;78;21018;-73
2022/11/10 03:54:48;;;;;;;25.62;17.70;;;;;;;6.30;88.52;100394.20;1793943;78;21535;-74
2022/11/10 03:57:33;;;;;;;23.55;17.75;;;;;;;6.27;88.54;100392.63;1803267;77;21129;-74
2022/11/10 04:00:19;;;;;;;25.30;18.05;;;;;;;6.28;88.41;100385.08;1797120;78;22096;-76
2022/11/10 04:03:04;;;;;;;27.40;19.12;;;;;;;6.38;88.19;100383.84;1808818;78;21529;-74
2022/11/10 04:09:00;;;;;;;27.65;17.17;;;;;;;6.36;88.17;100398.14;1808494;78;21026;-74
2022/11/10 04:17:54;;;;;;;26.65;17.70;;;;;;;6.38;88.02;100397.05;1803254;77;21123;-76
2022/11/10 04:20:39;;;;;;;23.85;18.02;;;;;;;6.42;88.10;100397.64;1817199;77;21053;-72
2022/11/10 04:23:33;;;;;;;25.85;19.35;;;;;;;6.44;87.90;100395.22;1804501;78;21032;-76
2022/11/10 04:26:29;;;;;;;26.52;17.55;;;;;;;6.35;88.21;100395.96;1806948;78;21172;-74
2022/11/10 04:29:17;;;;;;;24.72;16.65;;;;;;;6.39;88.33;100392.59;1807285;78;21076;-74
2022/11/10 04:32:03;;;;;;;23.25;18.35;;;;;;;6.43;88.14;100401.48;1808603;78;21061;-74
2022/11/10 04:34:48;;;;;;;27.15;18.12;;;;;;;6.37;88.27;100397.99;1815686;77;21493;-73
2022/11/10 04:37:33;;;;;;;28.47;17.87;;;;;;;6.35;88.48;100393.81;1812750;77;21053;-75
2022/11/10 04:40:19;;;;;;;23.60;17.40;;;;;;;6.44;88.15;100395.22;1804646;78;21935;-74
2022/11/10 04:43:05;;;;;;;26.93;18.82;;;;;;;6.43;88.06;100397.98;1803234;77;21017;-76
2022/11/10 04:45:51;;;;;;;24.98;16.85;;;;;;;6.36;88.30;100408.70;1832367;77;21018;-73
2022/11/10 04:48:37;;;;;;;20.43;16.20;;;;;;;6.37;88.33;100401.12;1828518;76;21561;-75
2022/11/10 04:51:29;;;;;;;27.45;19.32;;;;;;;6.42;88.12;100401.11;1825463;77;20998;-75
2022/11/10 04:54:14;;;;;;;27.60;18.92;;;;;;;6.36;88.17;100405.57;1774905;79;21322;-75
2022/11/10 04:56:59;;;;;;;24.07;17.73;;;;;;;6.34;88.29;100406.17;1780090;79;21024;-75
2022/11/10 04:59:46;;;;;;;24.32;17.85;;;;;;;6.38;88.21;100435.31;1777381;79;21069;-75
2022/11/10 05:02:31;;;;;;;29.32;17.98;;;;;;;6.31;88.31;100410.37;1799873;77;21026;-75
2022/11/10 05:05:16;;;;;;;24.30;17.65;;;;;;;6.24;88.59;100406.58;1786333;79;21022;-75
2022/11/10 05:08:01;;;;;;;21.87;16.90;;;;;;;6.33;88.46;100414.21;1795252;77;21790;-76
2022/11/10 05:10:47;;;;;;;25.37;17.57;;;;;;;6.33;88.33;100411.58;1786869;77;21097;-73
2022/11/10 05:13:32;;;;;;;26.85;19.82;;;;;;;6.25;88.44;100416.16;1768106;79;21510;-74
2022/11/10 05:16:17;;;;;;;25.05;16.95;;;;;;;6.30;88.53;100419.27;1770387;79;21002;-75
2022/11/10 05:19:02;;;;;;;28.15;17.85;;;;;;;6.24;88.54;100425.88;1744331;80;21010;-75
2022/11/10 05:21:48;;;;;;;24.05;16.32;;;;;;;6.17;89.00;100429.96;1793887;78;21529;-76
2022/11/10 05:24:34;;;;;;;21.87;16.52;;;;;;;6.23;88.99;100424.67;1783555;78;21050;-74
2022/11/10 05:27:19;;;;;;;25.40;18.32;;;;;;;6.27;88.85;100414.22;1803521;79;21033;-73
2022/11/10 05:30:06;;;;;;;25.45;19.07;;;;;;;6.22;88.98;100432.22;1767861;80;21037;-73
2022/11/10 05:32:51;;;;;;;22.48;16.95;;;;;;;6.17;89.21;100441.83;1784277;78;21068;-75
2022/11/10 05:35:37;;;;;;;26.52;18.73;;;;;;;6.27;89.01;100424.30;1786907;80;21150;-73
2022/11/10 05:38:22;;;;;;;24.98;18.60;;;;;;;6.30;88.85;100443.02;1825786;76;21022;-74
2022/11/10 05:41:07;;;;;;;22.87;17.73;;;;;;;6.24;89.08;100440.39;1837157;77;21028;-74
2022/11/10 05:43:51;;;;;;;24.18;16.97;;;;;;;6.25;89.14;100450.45;1825548;77;21541;-73
2022/11/10 05:46:37;;;;;;;30.77;17.92;;;;;;;6.34;88.97;100455.00;1826980;77;21031;-71
2022/11/10 05:49:22;;;;;;;27.73;17.42;;;;;;;6.30;88.98;100457.53;1767046;79;21720;-73
2022/11/10 05:52:07;;;;;;;22.58;15.95;;;;;;;6.23;89.24;100457.66;1766141;80;21045;-75
2022/11/10 05:54:54;;;;;;;25.82;16.10;;;;;;;6.29;89.14;100459.31;1816284;79;21077;-75
2022/11/10 05:57:47;;;;;;;25.95;18.05;;;;;;;6.34;89.07;100469.52;1811670;77;21041;-74
2022/11/10 06:00:32;;;;;;;28.42;18.12;;;;;;;6.31;89.12;100461.83;1806334;77;21072;-74
2022/11/10 06:03:18;;;;;;;23.30;16.82;;;;;;;6.28;89.47;100467.37;1812081;77;21159;-73
2022/11/10 06:06:04;;;;;;;27.05;18.57;;;;;;;6.37;89.11;100473.70;1797350;77;21071;-73
2022/11/10 06:08:51;;;;;;;31.40;18.50;;;;;;;6.33;89.30;100486.30;1815254;78;21588;-73
2022/11/10 06:11:36;;;;;;;26.57;17.05;;;;;;;6.24;89.71;100480.45;1810161;77;21596;-72
2022/11/10 06:14:22;;;;;;;28.75;17.67;;;;;;;6.32;89.61;100478.03;1814232;78;21045;-73
2022/11/10 06:17:08;;;;;;;26.33;18.30;;;;;;;6.42;89.36;100484.25;1808275;77;21040;-73
2022/11/10 06:19:53;;;;;;;24.87;17.52;;;;;;;6.37;89.44;100490.36;1796375;77;21013;-74
2022/11/10 06:22:40;;;;;;;24.12;16.45;;;;;;;6.37;89.68;100495.64;1802282;79;21081;-73
2022/11/10 06:25:30;;;;;;;24.60;17.73;;;;;;;6.47;89.37;100483.41;1808504;77;21120;-74
2022/11/10 06:28:16;;;;;;;23.27;17.10;;;;;;;6.48;89.33;100488.20;1794984;77;21041;-74
2022/11/10 06:31:02;;;;;;;24.67;16.42;;;;;;;6.43;89.51;100487.72;1804483;78;21254;-74
2022/11/10 06:33:48;;;;;;;25.10;16.87;;;;;;;6.48;89.50;100495.63;1811623;79;21001;-74
2022/11/10 06:36:34;;;;;;;23.32;16.95;;;;;;;6.55;89.26;100493.34;1811174;77;21045;-73
2022/11/10 06:39:19;;;;;;;25.92;17.27;;;;;;;6.52;89.36;100492.27;1779165;79;21029;-74
2022/11/10 06:42:04;;;;;;;22.82;16.50;;;;;;;6.50;89.47;100498.98;1790055;79;21508;-74
2022/11/10 06:44:50;;;;;;;25.37;17.45;;;;;;;6.58;89.44;100488.30;1779939;80;21102;-73
2022/11/10 06:47:35;;;;;;;24.72;17.90;;;;;;;6.56;89.50;100492.86;1778517;79;21060;-73
2022/11/10 06:50:21;;;;;;;23.18;15.38;;;;;;;6.48;89.89;100489.52;1786437;79;20998;-75
2022/11/10 06:53:06;;;;;;;24.32;16.40;;;;;;;6.59;89.64;100485.53;1786273;79;21034;-75
2022/11/10 06:55:52;;;;;;;20.70;15.43;;;;;;;6.61;89.55;100482.78;1767402;80;21057;-73
2022/11/10 06:58:37;;;;;;;20.20;15.53;;;;;;;6.56;89.75;100500.29;1780863;80;21204;-75
2022/11/10 07:01:25;;;;;;;22.65;17.02;;;;;;;6.62;89.83;100483.95;1774711;80;21066;-74
2022/11/10 07:04:09;;;;;;;23.67;18.00;;;;;;;6.69;89.59;100488.27;1780073;80;21026;-75
2022/11/10 07:06:54;;;;;;;23.32;15.95;;;;;;;6.62;89.74;100499.79;1760232;78;21561;-74
2022/11/10 07:09:39;;;;;;;23.85;17.12;;;;;;;6.64;89.91;100487.79;1775000;79;21065;-73
2022/11/10 07:12:25;;;;;;;26.17;16.90;;;;;;;6.74;89.55;100488.73;1763859;80;21534;-74
2022/11/10 07:15:10;;;;;;;26.77;18.98;;;;;;;6.71;89.62;100491.62;1762055;80;21542;-74
2022/11/10 07:17:55;;;;;;;24.87;17.32;;;;;;;6.72;89.68;100491.13;1779683;80;21057;-73
2022/11/10 07:20:41;;;;;;;29.35;19.35;;;;;;;6.80;89.47;100484.27;1762422;80;21037;-73
2022/11/10 07:23:26;;;;;;;28.47;17.77;;;;;;;6.79;89.55;100489.67;1776421;80;21077;-73
2022/11/10 07:26:11;;;;;;;23.12;16.35;;;;;;;6.79;89.57;100490.50;1778334;78;21140;-74
2022/11/10 07:28:57;;;;;;;21.15;17.02;;;;;;;6.95;89.24;100486.11;1770185;80;20991;-73
2022/11/10 07:31:44;;;;;;;27.17;18.52;;;;;;;7.04;88.74;100490.64;1776368;79;21552;-73
2022/11/10 07:34:29;;;;;;;24.52;17.35;;;;;;;7.03;88.73;100492.95;1778838;80;21518;-74
2022/11/10 07:37:14;;;;;;;22.42;17.42;;;;;;;7.07;88.55;100485.61;1778145;80;21617;-74
2022/11/10 07:39:59;;;;;;;28.07;17.80;;;;;;;7.21;88.10;100482.64;1764440;80;21111;-77
2022/11/10 07:42:46;;;;;;;32.90;18.12;;;;;;;7.23;87.92;100491.77;1767631;78;21026;-75
2022/11/10 07:45:31;;;;;;;24.12;16.82;;;;;;;7.20;87.89;100490.20;1775131;78;21026;-76
2022/11/10 07:48:17;;;;;;;23.62;16.62;;;;;;;7.22;87.82;100498.01;1772206;79;21058;-75
2022/11/10 07:51:01;;;;;;;26.35;18.40;;;;;;;7.32;87.54;100500.72;1776221;78;21574;-77
2022/11/10 07:53:47;;;;;;;24.67;18.12;;;;;;;7.30;87.69;100496.88;1770201;78;21138;-77
2022/11/10 07:56:32;;;;;;;25.17;18.05;;;;;;;7.26;87.76;100491.04;1762073;78;21594;-76
2022/11/10 07:59:17;;;;;;;22.52;17.05;;;;;;;7.34;87.62;100495.68;1768086;79;20995;-77
2022/11/10 08:02:02;;;;;;;21.93;17.75;;;;;;;7.44;87.40;100504.50;1773340;79;21127;-76
2022/11/10 08:04:47;;;;;;;20.25;15.63;;;;;;;7.44;87.47;100489.13;1774308;79;21553;-78
2022/11/10 08:07:33;;;;;;;24.05;16.95;;;;;;;7.45;87.43;100500.05;1753030;80;21310;-76
2022/11/10 08:10:18;;;;;;;23.30;18.17;;;;;;;7.61;87.09;100501.77;1769682;80;21011;-78
2022/11/10 08:13:06;;;;;;;31.07;18.00;;;;;;;7.66;86.73;100500.87;1767508;79;21570;-77
2022/11/10 08:15:51;;;;;;;26.62;17.07;;;;;;;7.62;86.73;100494.16;1798245;77;21596;-75
2022/11/10 08:18:36;;;;;;;21.60;16.10;;;;;;;7.68;86.65;100502.06;1797945;79;21045;-77
2022/11/10 08:21:22;;;;;;;22.65;17.10;;;;;;;7.78;86.29;100495.50;1790521;78;21534;-77
2022/11/10 08:24:08;;;;;;;23.18;16.30;;;;;;;7.75;86.36;100503.23;1793746;78;21018;-77
2022/11/10 08:26:53;;;;;;;23.52;15.28;;;;;;;7.73;86.53;100513.59;1804247;79;21017;-76
2022/11/10 08:29:38;;;;;;;23.42;16.48;;;;;;;7.80;86.33;100511.62;1787109;79;21017;-75
2022/11/10 08:32:24;;;;;;;26.33;18.12;;;;;;;7.80;86.28;100515.59;1768879;78;21048;-77
2022/11/10 08:35:09;;;;;;;22.35;16.02;;;;;;;7.77;86.40;100534.84;1775147;78;21974;-77
2022/11/10 08:37:54;;;;;;;23.32;16.95;;;;;;;7.84;86.35;100508.20;1779389;78;21043;-80
2022/11/10 08:40:40;;;;;;;24.57;18.07;;;;;;;7.89;86.01;100513.94;1778701;78;21179;-76
2022/11/10 08:43:25;;;;;;;21.70;17.07;;;;;;;7.83;86.24;100507.86;1777851;78;21105;-75
2022/11/10 08:46:10;;;;;;;24.95;17.45;;;;;;;7.82;86.32;100505.70;1777966;78;21065;-77
2022/11/10 08:48:55;;;;;;;26.25;18.10;;;;;;;7.96;86.16;100504.98;1780735;79;21093;-78
2022/11/10 08:51:40;;;;;;;24.00;17.67;;;;;;;7.98;86.01;100504.39;1778682;78;21059;-77
2022/11/10 08:54:25;;;;;;;24.35;17.52;;;;;;;7.96;86.12;100515.09;1764843;79;21057;-77
2022/11/10 08:57:10;;;;;;;23.02;18.20;;;;;;;8.00;86.13;100517.00;1777027;78;21069;-76
2022/11/10 08:59:56;;;;;;;25.77;19.30;;;;;;;8.10;85.94;100504.64;1776248;79;21057;-79
2022/11/10 09:02:41;;;;;;;26.70;18.80;;;;;;;8.08;85.93;100510.06;1776640;78;21874;-78
2022/11/10 09:05:26;;;;;;;25.40;17.70;;;;;;;8.05;86.13;100501.55;1766395;80;21477;-77
2022/11/10 09:08:11;;;;;;;22.58;17.95;;;;;;;8.15;86.12;100500.25;1811356;77;21077;-76
2022/11/10 09:10:55;;;;;;;26.07;19.35;;;;;;;8.22;85.76;100508.02;1807071;77;21045;-72
2022/11/10 09:13:42;;;;;;;24.90;18.07;;;;;;;8.15;86.12;100509.52;1834328;77;20973;-76
2022/11/10 09:16:27;;;;;;;22.67;16.75;;;;;;;8.10;86.61;100516.55;1842779;75;21053;-76
2022/11/10 09:19:12;;;;;;;25.72;17.82;;;;;;;8.17;86.45;100511.08;1832361;75;21033;-76
2022/11/10 09:21:57;;;;;;;28.10;19.57;;;;;;;8.20;86.52;100516.09;1822631;77;21134;-76
2022/11/10 09:24:42;;;;;;;23.98;19.60;;;;;;;8.14;86.80;100503.89;1843900;75;21037;-76
2022/11/10 09:27:27;;;;;;;28.87;17.67;;;;;;;8.19;86.73;100501.20;1834584;75;21575;-76
2022/11/10 09:30:13;;;;;;;30.37;20.43;;;;;;;8.26;86.77;100510.25;1846031;75;21068;-76
2022/11/10 09:32:59;;;;;;;29.25;18.80;;;;;;;8.20;87.07;100501.53;1843985;75;21088;-76
2022/11/10 09:35:46;;;;;;;29.55;19.48;;;;;;;8.18;87.37;100507.45;1835104;75;20963;-76
2022/11/10 09:38:31;;;;;;;25.95;18.50;;;;;;;8.31;87.14;100497.95;1831774;75;21080;-76
2022/11/10 09:41:17;;;;;;;28.23;19.57;;;;;;;8.30;87.34;100495.44;1837970;77;21622;-76
2022/11/10 09:44:25;;;;;;;28.40;18.42;;;;;;;8.23;87.63;100502.60;1847683;77;21662;-77
2022/11/10 09:47:21;;;;;;;27.77;19.20;;;;;;;8.27;87.68;100518.56;1837744;76;20998;-76
2022/11/10 09:50:12;;;;;;;27.73;18.98;;;;;;;8.29;87.88;100518.43;1834594;76;20984;-75
2022/11/10 09:52:58;;;;;;;31.57;19.57;;;;;;;8.20;88.34;100520.55;1743623;80;21530;-77
2022/11/10 09:55:52;;;;;;;24.10;17.45;;;;;;;8.23;88.66;100515.00;1764751;79;21054;-75
2022/11/10 09:58:41;;;;;;;27.80;18.80;;;;;;;8.27;88.47;100501.36;1768893;80;21647;-75
2022/11/10 10:01:53;;;;;;;28.25;19.02;;;;;;;8.24;88.61;100488.37;1828285;77;20994;-76
2022/11/10 10:05:03;;;;;;;25.32;19.25;;;;;;;8.21;89.09;100509.02;1770572;80;20967;-75
2022/11/10 10:08:01;;;;;;;28.12;18.87;;;;;;;8.28;88.94;100504.83;1788435;79;21094;-74
2022/11/10 10:10:57;;;;;;;29.02;18.57;;;;;;;8.23;89.11;100503.09;1772453;80;21065;-75
2022/11/10 10:14:00;;;;;;;26.33;18.37;;;;;;;8.19;89.36;100497.69;1783592;78;21236;-77
2022/11/10 10:17:26;;;;;;;28.50;18.82;;;;;;;8.29;89.31;100494.61;1835776;76;21016;-75
2022/11/10 10:20:25;;;;;;;28.32;19.02;;;;;;;8.28;89.38;100516.74;1828519;76;21041;-78
2022/11/10 10:23:31;;;;;;;27.93;19.15;;;;;;;8.23;89.70;100501.27;1821720;77;21028;-80
2022/11/10 10:26:19;;;;;;;25.80;19.12;;;;;;;8.28;89.69;100500.37;1827231;76;21019;-78
2022/11/10 10:29:11;;;;;;;28.55;18.60;;;;;;;8.21;89.93;100499.75;1828127;76;22134;-78
2022/11/10 10:31:59;;;;;;;25.85;18.37;;;;;;;8.23;89.96;100507.89;1764925;79;21575;-78
2022/11/10 10:34:44;;;;;;;27.70;20.23;;;;;;;8.24;89.95;100517.49;1795244;77;21015;-80
2022/11/10 10:37:44;;;;;;;25.80;19.00;;;;;;;8.19;90.24;100502.52;1775699;77;21081;-79
2022/11/10 10:40:29;;;;;;;22.15;16.42;;;;;;;8.21;90.47;100514.30;1762117;79;21113;-78
2022/11/10 10:43:14;;;;;;;27.65;19.48;;;;;;;8.28;90.22;100504.83;1763181;80;22192;-79
2022/11/10 10:46:06;;;;;;;30.80;20.10;;;;;;;8.26;90.29;100504.95;1784961;78;21101;-77
2022/11/10 10:49:28;;;;;;;31.45;20.27;;;;;;;8.22;90.47;100496.11;1727264;80;21292;-76
2022/11/10 10:52:17;;;;;;;35.38;20.12;;;;;;;8.30;90.38;100497.59;1684276;83;21141;-76
2022/11/10 10:55:06;;;;;;;27.55;19.07;;;;;;;8.27;90.40;100499.20;1702772;82;21557;-75
2022/11/10 10:58:02;;;;;;;33.83;18.77;;;;;;;8.23;90.76;100497.80;1686904;83;21043;-75
2022/11/10 11:00:57;;;;;;;28.27;19.75;;;;;;;8.32;90.62;100514.67;1712289;82;21085;-78
2022/11/10 11:03:45;;;;;;;32.40;19.62;;;;;;;8.31;90.60;100509.87;1681341;85;21082;-76
2022/11/10 11:06:31;;;;;;;34.00;21.20;;;;;;;8.23;91.00;100507.06;1708550;82;21141;-75
2022/11/10 11:09:20;;;;;;;37.42;22.73;;;;;;;8.32;90.88;100511.53;1713773;82;21353;-76
2022/11/10 11:12:21;;;;;;;30.50;20.62;;;;;;;8.32;90.71;100515.99;1683580;83;21162;-76
2022/11/10 11:15:28;;;;;;;28.02;19.95;;;;;;;8.26;90.88;100513.39;1711266;82;21672;-77
2022/11/10 11:18:15;;;;;;;31.27;20.50;;;;;;;8.34;90.70;100520.17;1709688;81;21243;-76
2022/11/10 11:21:34;;;;;;;31.33;21.07;;;;;;;8.25;90.44;100545.66;1757007;80;21026;-76
2022/11/10 11:24:34;;;;;;;31.02;20.45;;;;;;;8.23;90.34;100516.33;1757274;80;21390;-76
2022/11/10 11:27:28;;;;;;;31.87;19.40;;;;;;;8.19;90.95;100525.48;1759712;81;20999;-77
2022/11/10 11:30:21;;;;;;;32.70;23.10;;;;;;;8.16;91.32;100524.44;1760985;80;21010;-75
2022/11/10 11:33:41;;;;;;;34.98;21.37;;;;;;;8.13;91.61;100528.66;1761474;80;21113;-77
2022/11/10 11:36:56;;;;;;;27.67;21.00;;;;;;;8.10;92.00;100528.95;1754789;80;21030;-79
2022/11/10 11:39:53;;;;;;;33.88;21.50;;;;;;;8.16;91.74;100529.73;1757229;80;21065;-78
2022/11/10 11:42:56;;;;;;;25.62;19.48;;;;;;;8.06;91.98;100525.23;1726161;80;21150;-76
2022/11/10 11:46:09;;;;;;;33.85;22.40;;;;;;;8.11;92.07;100531.94;1759833;80;21305;-75
2022/11/10 11:49:30;;;;;;;25.45;17.92;;;;;;;8.13;91.84;100526.02;1752789;80;21080;-75
2022/11/10 11:52:45;;;;;;;28.57;19.85;;;;;;;8.04;91.97;100518.41;1749227;80;21069;-74
2022/11/10 11:55:59;;;;;;;29.45;20.20;;;;;;;8.07;91.91;100525.60;1729428;80;21064;-76
2022/11/10 12:00:15;;;;;;;33.48;21.85;;;;;;;8.08;92.25;100509.23;1859560;75;26997;-75
2022/11/10 12:03:47;;;;;;;29.72;20.70;;;;;;;8.03;92.39;100514.90;1827550;77;21000;-76
2022/11/10 12:07:00;;;;;;;31.60;21.00;;;;;;;8.03;92.62;100518.87;1820683;77;21160;-77
2022/11/10 12:09:50;;;;;;;35.92;24.10;;;;;;;8.09;92.58;100509.56;1821561;77;20981;-75
2022/11/10 12:13:18;;;;;;;30.97;22.02;;;;;;;8.04;92.77;100508.66;1821569;77;20994;-75
2022/11/10 12:16:25;;;;;;;29.12;21.68;;;;;;;8.00;93.03;100506.42;1822175;77;21021;-74
2022/11/10 12:19:58;;;;;;;31.42;23.00;;;;;;;8.07;92.76;100503.11;1824576;77;21557;-76
2022/11/10 12:23:10;;;;;;;31.17;21.75;;;;;;;7.98;92.98;100513.16;1810966;77;21854;-75
2022/11/10 12:26:29;;;;;;;34.48;24.82;;;;;;;8.03;92.95;100513.58;1838114;77;21060;-75
2022/11/10 12:29:40;;;;;;;25.32;21.68;;;;;;;8.00;92.90;100507.73;1797890;78;21025;-73
2022/11/10 12:32:52;;;;;;;33.80;23.90;;;;;;;7.99;93.12;100510.84;1817271;77;22142;-79
2022/11/10 12:35:40;;;;;;;36.85;23.60;;;;;;;7.99;93.31;100537.31;1818854;77;21052;-76
2022/11/10 12:38:47;;;;;;;34.73;23.07;;;;;;;7.91;93.50;100515.97;1816581;77;21210;-78
2022/11/10 12:41:44;;;;;;;31.75;23.90;;;;;;;7.97;93.53;100528.66;1838498;77;21567;-76
2022/11/10 12:44:51;;;;;;;34.90;23.62;;;;;;;7.95;93.60;100526.64;1839832;77;21592;-77
2022/11/10 12:47:41;;;;;;;33.78;23.25;;;;;;;7.91;93.71;100518.61;1831070;77;20978;-77
2022/11/10 12:50:54;;;;;;;32.50;23.10;;;;;;;8.01;93.39;100525.27;1824183;76;21020;-74
2022/11/10 12:53:40;;;;;;;27.07;18.87;;;;;;;7.94;93.31;100518.36;1822487;77;21526;-76
2022/11/10 12:56:36;;;;;;;27.80;21.02;;;;;;;7.91;93.28;100519.94;1815264;77;21037;-77
2022/11/10 12:59:30;;;;;;;29.55;22.02;;;;;;;7.93;93.38;100515.35;1831471;77;20994;-74
2022/11/10 13:02:29;;;;;;;33.67;22.90;;;;;;;7.93;93.53;100523.29;1806759;77;21423;-74
2022/11/10 13:05:35;;;;;;;31.40;20.97;;;;;;;7.89;93.96;100517.91;1807585;77;21035;-75
2022/11/10 13:08:31;;;;;;;27.70;21.27;;;;;;;7.97;93.86;100520.73;1812778;77;21780;-76
2022/11/10 13:11:23;;;;;;;33.05;21.97;;;;;;;7.96;93.80;100520.85;1825733;77;20990;-76
2022/11/10 13:14:24;;;;;;;30.17;19.85;;;;;;;7.88;94.06;100522.38;1816627;77;21056;-76